createdAt,value
2023-02-25T00:00:16.272Z,0.00
2023-02-25T00:01:16.288Z,0.00
2023-02-25T00:02:16.328Z,0.00
2023-02-25T00:03:16.385Z,0.00
2023-02-25T00:04:16.345Z,0.00
2023-02-25T00:05:16.364Z,0.00
2023-02-25T00:06:16.381Z,0.00
2023-02-25T00:07:16.395Z,0.00
2023-02-25T00:08:16.414Z,0.00
2023-02-25T00:09:16.429Z,0.00
2023-02-25T00:10:16.453Z,0.00
2023-02-25T00:11:16.470Z,0.00
2023-02-25T00:12:16.487Z,0.00
2023-02-25T00:13:18.567Z,0.00
2023-02-25T00:14:16.528Z,0.00
2023-02-25T00:15:16.548Z,0.00
2023-02-25T00:16:16.607Z,0.00
2023-02-25T00:17:16.577Z,0.00
2023-02-25T00:18:16.598Z,0.00
2023-02-25T00:19:16.614Z,0.00
2023-02-25T00:20:16.631Z,0.00
2023-02-25T00:21:16.721Z,0.00
2023-02-25T00:22:16.670Z,0.00
2023-02-25T00:23:16.686Z,0.00
2023-02-25T00:24:17.283Z,0.00
2023-02-25T00:25:16.736Z,0.00
2023-02-25T00:26:16.749Z,0.00
2023-02-25T00:27:16.757Z,0.00
2023-02-25T00:28:16.773Z,0.00
2023-02-25T00:29:16.801Z,0.00
2023-02-25T00:30:16.814Z,0.00
2023-02-25T00:31:16.946Z,0.00
2023-02-25T00:32:17.051Z,0.00
2023-02-25T00:33:16.872Z,0.00
2023-02-25T00:34:16.893Z,0.00
2023-02-25T00:35:16.906Z,0.00
2023-02-25T00:36:16.926Z,0.00
2023-02-25T00:37:17.038Z,0.00
2023-02-25T00:38:16.960Z,0.00
2023-02-25T00:39:17.015Z,0.00
2023-02-25T00:40:17.001Z,0.00
2023-02-25T00:41:17.016Z,0.00
2023-02-25T00:42:17.037Z,0.00
2023-02-25T00:43:17.055Z,0.00
2023-02-25T00:44:17.077Z,0.00
2023-02-25T00:45:17.093Z,0.00
2023-02-25T00:46:17.154Z,0.00
2023-02-25T00:47:17.131Z,0.00
2023-02-25T00:48:17.143Z,0.00
2023-02-25T00:49:31.432Z,0.00
2023-02-25T00:50:17.215Z,0.00
2023-02-25T00:51:17.199Z,0.00
2023-02-25T00:52:17.218Z,0.00
2023-02-25T00:53:17.238Z,0.00
2023-02-25T00:54:17.255Z,0.00
2023-02-25T00:55:17.268Z,0.00
2023-02-25T00:56:17.303Z,0.00
2023-02-25T00:57:17.313Z,0.00
2023-02-25T00:58:17.330Z,0.00
2023-02-25T00:59:17.344Z,0.00
2023-02-25T01:00:17.386Z,0.00
2023-02-25T01:01:17.414Z,0.00
2023-02-25T01:02:17.396Z,0.00
2023-02-25T01:03:17.423Z,0.00
2023-02-25T01:04:17.441Z,0.00
2023-02-25T01:05:17.459Z,0.00
2023-02-25T01:06:17.474Z,0.00
2023-02-25T01:07:17.485Z,0.00
2023-02-25T01:08:17.506Z,0.00
2023-02-25T01:09:17.521Z,0.00
2023-02-25T01:10:17.545Z,0.00
2023-02-25T01:11:17.557Z,0.00
2023-02-25T01:12:17.579Z,0.00
2023-02-25T01:13:17.596Z,0.00
2023-02-25T01:14:17.610Z,0.00
2023-02-25T01:15:17.631Z,0.00
2023-02-25T01:16:17.674Z,0.00
2023-02-25T01:17:17.667Z,0.00
2023-02-25T01:18:17.685Z,0.00
2023-02-25T01:19:17.702Z,0.00
2023-02-25T01:20:17.720Z,0.00
2023-02-25T01:21:17.746Z,0.00
2023-02-25T01:22:17.755Z,0.00
2023-02-25T01:23:17.782Z,0.00
2023-02-25T01:24:17.799Z,0.00
2023-02-25T01:25:17.817Z,0.00
2023-02-25T01:26:17.847Z,0.00
2023-02-25T01:27:17.857Z,0.00
2023-02-25T01:28:17.870Z,0.00
2023-02-25T01:29:17.886Z,0.00
2023-02-25T01:30:17.910Z,0.00
2023-02-25T01:31:18.022Z,0.00
2023-02-25T01:32:18.087Z,0.00
2023-02-25T01:33:17.961Z,0.00
2023-02-25T01:34:17.972Z,0.00
2023-02-25T01:35:17.993Z,0.00
2023-02-25T01:36:18.014Z,0.00
2023-02-25T01:37:18.027Z,0.00
2023-02-25T01:38:18.048Z,0.00
2023-02-25T01:39:18.069Z,0.00
2023-02-25T01:40:18.104Z,0.00
2023-02-25T01:41:18.102Z,0.00
2023-02-25T01:42:18.125Z,0.00
2023-02-25T01:43:18.142Z,0.00
2023-02-25T01:44:18.164Z,0.00
2023-02-25T01:45:18.177Z,0.00
2023-02-25T01:46:18.227Z,0.00
2023-02-25T01:47:18.214Z,0.00
2023-02-25T01:48:18.239Z,0.00
2023-02-25T01:49:18.254Z,0.00
2023-02-25T01:50:18.274Z,0.00
2023-02-25T01:51:18.288Z,0.00
2023-02-25T01:52:18.318Z,0.00
2023-02-25T01:53:18.333Z,0.00
2023-02-25T01:54:18.347Z,0.00
2023-02-25T01:55:18.364Z,0.00
2023-02-25T01:56:18.387Z,0.00
2023-02-25T01:57:18.406Z,0.00
2023-02-25T01:58:18.421Z,0.00
2023-02-25T01:59:18.446Z,0.00
2023-02-25T02:00:18.459Z,0.00
2023-02-25T02:01:18.472Z,0.00
2023-02-25T02:02:18.503Z,0.00
2023-02-25T02:03:18.513Z,0.00
2023-02-25T02:04:18.540Z,0.00
2023-02-25T02:05:18.549Z,0.00
2023-02-25T02:06:18.566Z,0.00
2023-02-25T02:07:18.585Z,0.00
2023-02-25T02:08:18.608Z,0.00
2023-02-25T02:09:18.626Z,0.00
2023-02-25T02:10:18.636Z,0.00
2023-02-25T02:11:18.665Z,0.00
2023-02-25T02:12:18.674Z,0.00
2023-02-25T02:13:18.693Z,0.00
2023-02-25T02:14:18.712Z,0.00
2023-02-25T02:15:18.729Z,0.00
2023-02-25T02:16:18.842Z,0.00
2023-02-25T02:17:18.765Z,0.00
2023-02-25T02:18:18.777Z,0.00
2023-02-25T02:19:18.808Z,0.00
2023-02-25T02:20:18.824Z,0.00
2023-02-25T02:21:18.837Z,0.00
2023-02-25T02:22:18.858Z,0.00
2023-02-25T02:23:18.874Z,0.00
2023-02-25T02:24:18.891Z,0.00
2023-02-25T02:25:18.914Z,0.00
2023-02-25T02:26:18.928Z,0.00
2023-02-25T02:27:18.944Z,0.00
2023-02-25T02:28:18.965Z,0.00
2023-02-25T02:29:18.986Z,0.00
2023-02-25T02:30:19.005Z,0.00
2023-02-25T02:31:19.065Z,0.00
2023-02-25T02:32:19.208Z,0.00
2023-02-25T02:33:19.052Z,0.00
2023-02-25T02:34:19.076Z,0.00
2023-02-25T02:35:19.093Z,0.00
2023-02-25T02:36:19.118Z,0.00
2023-02-25T02:37:19.127Z,0.00
2023-02-25T02:38:19.141Z,0.00
2023-02-25T02:39:19.161Z,0.00
2023-02-25T02:40:19.183Z,0.00
2023-02-25T02:41:19.199Z,0.00
2023-02-25T02:42:19.212Z,0.00
2023-02-25T02:43:19.235Z,0.00
2023-02-25T02:44:19.252Z,0.00
2023-02-25T02:45:19.270Z,0.00
2023-02-25T02:46:19.341Z,0.00
2023-02-25T02:47:19.303Z,0.00
2023-02-25T02:48:19.326Z,0.00
2023-02-25T02:49:19.341Z,0.00
2023-02-25T02:50:19.359Z,0.00
2023-02-25T02:51:19.374Z,0.00
2023-02-25T02:52:19.392Z,0.00
2023-02-25T02:53:19.410Z,0.00
2023-02-25T02:54:19.427Z,0.00
2023-02-25T02:55:19.443Z,0.00
2023-02-25T02:56:19.546Z,0.00
2023-02-25T02:57:19.480Z,0.00
2023-02-25T02:58:19.503Z,0.00
2023-02-25T02:59:19.562Z,0.00
2023-02-25T03:00:19.535Z,0.00
2023-02-25T03:01:19.605Z,0.00
2023-02-25T03:02:19.571Z,0.00
2023-02-25T03:03:19.590Z,0.00
2023-02-25T03:04:19.679Z,0.00
2023-02-25T03:05:19.624Z,0.00
2023-02-25T03:06:19.645Z,0.00
2023-02-25T03:07:19.669Z,0.00
2023-02-25T03:08:19.684Z,0.00
2023-02-25T03:09:19.743Z,0.00
2023-02-25T03:10:19.751Z,0.00
2023-02-25T03:11:19.774Z,0.00
2023-02-25T03:12:19.761Z,0.00
2023-02-25T03:13:19.767Z,0.00
2023-02-25T03:14:19.797Z,0.00
2023-02-25T03:15:19.806Z,0.00
2023-02-25T03:16:19.932Z,0.00
2023-02-25T03:17:19.838Z,0.00
2023-02-25T03:18:19.860Z,0.00
2023-02-25T03:19:19.884Z,0.00
2023-02-25T03:20:19.899Z,0.00
2023-02-25T03:21:19.926Z,0.00
2023-02-25T03:22:19.935Z,0.00
2023-02-25T03:23:19.952Z,0.00
2023-02-25T03:24:19.968Z,0.00
2023-02-25T03:25:19.993Z,0.00
2023-02-25T03:26:20.324Z,0.00
2023-02-25T03:27:20.045Z,0.00
2023-02-25T03:28:20.047Z,0.00
2023-02-25T03:29:20.065Z,0.00
2023-02-25T03:30:20.090Z,0.00
2023-02-25T03:31:20.113Z,0.00
2023-02-25T03:32:20.252Z,0.00
2023-02-25T03:33:20.138Z,0.00
2023-02-25T03:34:20.162Z,0.00
2023-02-25T03:35:20.173Z,0.00
2023-02-25T03:36:20.389Z,0.00
2023-02-25T03:37:20.213Z,0.00
2023-02-25T03:38:20.233Z,0.00
2023-02-25T03:39:20.256Z,0.00
2023-02-25T03:40:20.265Z,0.00
2023-02-25T03:41:20.295Z,0.00
2023-02-25T03:42:20.304Z,0.00
2023-02-25T03:43:20.324Z,0.00
2023-02-25T03:44:20.346Z,0.00
2023-02-25T03:45:20.364Z,0.00
2023-02-25T03:46:20.480Z,0.00
2023-02-25T03:47:20.397Z,0.00
2023-02-25T03:48:20.407Z,0.00
2023-02-25T03:49:20.434Z,0.00
2023-02-25T03:50:20.453Z,0.00
2023-02-25T03:51:20.468Z,0.00
2023-02-25T03:52:20.490Z,0.00
2023-02-25T03:53:20.511Z,0.00
2023-02-25T03:54:20.517Z,0.00
2023-02-25T03:55:20.543Z,0.00
2023-02-25T03:56:20.700Z,0.00
2023-02-25T03:57:20.595Z,0.00
2023-02-25T03:58:20.598Z,0.00
2023-02-25T03:59:20.608Z,0.00
2023-02-25T04:00:20.628Z,0.00
2023-02-25T04:01:20.648Z,0.00
2023-02-25T04:02:20.704Z,0.00
2023-02-25T04:03:20.688Z,0.00
2023-02-25T04:04:20.778Z,0.00
2023-02-25T04:05:20.720Z,0.00
2023-02-25T04:06:21.171Z,0.00
2023-02-25T04:07:20.748Z,0.00
2023-02-25T04:08:20.775Z,0.00
2023-02-25T04:09:20.787Z,0.00
2023-02-25T04:10:20.807Z,0.00
2023-02-25T04:11:20.827Z,0.00
2023-02-25T04:12:21.012Z,0.00
2023-02-25T04:13:20.892Z,0.00
2023-02-25T04:14:20.882Z,0.00
2023-02-25T04:15:20.906Z,0.00
2023-02-25T04:16:21.251Z,0.00
2023-02-25T04:17:21.043Z,0.00
2023-02-25T04:18:20.953Z,0.00
2023-02-25T04:19:20.973Z,0.00
2023-02-25T04:20:20.988Z,0.00
2023-02-25T04:21:21.004Z,0.00
2023-02-25T04:22:21.024Z,0.00
2023-02-25T04:23:21.041Z,0.00
2023-02-25T04:24:21.066Z,0.00
2023-02-25T04:25:21.074Z,0.00
2023-02-25T04:26:21.382Z,0.00
2023-02-25T04:27:21.117Z,0.00
2023-02-25T04:28:21.134Z,0.00
2023-02-25T04:29:21.153Z,0.00
2023-02-25T04:30:21.172Z,0.00
2023-02-25T04:31:21.287Z,0.00
2023-02-25T04:32:21.356Z,0.00
2023-02-25T04:33:21.222Z,0.00
2023-02-25T04:34:21.248Z,0.00
2023-02-25T04:35:21.262Z,0.00
2023-02-25T04:36:21.583Z,0.00
2023-02-25T04:37:21.305Z,0.00
2023-02-25T04:38:21.316Z,0.00
2023-02-25T04:39:21.332Z,0.00
2023-02-25T04:40:21.359Z,0.00
2023-02-25T04:41:21.369Z,0.00
2023-02-25T04:42:21.390Z,0.00
2023-02-25T04:43:21.411Z,0.00
2023-02-25T04:44:21.427Z,0.00
2023-02-25T04:45:21.442Z,0.00
2023-02-25T04:46:21.969Z,0.00
2023-02-25T04:47:21.526Z,0.00
2023-02-25T04:48:21.497Z,0.00
2023-02-25T04:49:21.515Z,0.00
2023-02-25T04:50:21.532Z,0.00
2023-02-25T04:51:21.553Z,0.00
2023-02-25T04:52:21.586Z,0.00
2023-02-25T04:53:21.589Z,0.00
2023-02-25T04:54:21.629Z,0.00
2023-02-25T04:55:21.624Z,0.00
2023-02-25T04:56:22.109Z,0.00
2023-02-25T04:57:21.698Z,0.00
2023-02-25T04:58:21.677Z,0.00
2023-02-25T04:59:21.694Z,0.00
2023-02-25T05:00:21.713Z,0.00
2023-02-25T05:01:21.762Z,0.00
2023-02-25T05:02:21.751Z,0.00
2023-02-25T05:03:21.767Z,0.00
2023-02-25T05:04:21.818Z,0.00
2023-02-25T05:05:21.816Z,0.00
2023-02-25T05:06:22.240Z,0.00
2023-02-25T05:07:21.839Z,0.00
2023-02-25T05:08:21.860Z,0.00
2023-02-25T05:09:21.875Z,0.00
2023-02-25T05:10:21.901Z,0.00
2023-02-25T05:11:21.929Z,0.00
2023-02-25T05:12:21.932Z,0.00
2023-02-25T05:13:21.950Z,0.00
2023-02-25T05:14:21.967Z,0.00
2023-02-25T05:15:21.984Z,0.00
2023-02-25T05:16:22.442Z,0.00
2023-02-25T05:17:22.023Z,0.00
2023-02-25T05:18:22.039Z,0.00
2023-02-25T05:19:22.068Z,0.00
2023-02-25T05:20:22.146Z,0.00
2023-02-25T05:21:22.099Z,0.00
2023-02-25T05:22:22.121Z,0.00
2023-02-25T05:23:22.137Z,0.00
2023-02-25T05:24:22.145Z,0.00
2023-02-25T05:25:22.164Z,0.00
2023-02-25T05:26:22.681Z,0.00
2023-02-25T05:27:22.202Z,0.00
2023-02-25T05:28:22.222Z,0.00
2023-02-25T05:29:22.290Z,0.00
2023-02-25T05:30:22.260Z,0.00
2023-02-25T05:31:22.354Z,0.00
2023-02-25T05:32:22.361Z,0.00
2023-02-25T05:33:22.313Z,0.00
2023-02-25T05:34:22.325Z,0.00
2023-02-25T05:35:22.357Z,0.00
2023-02-25T05:36:24.123Z,0.00
2023-02-25T05:37:22.377Z,0.00
2023-02-25T05:38:22.395Z,0.00
2023-02-25T05:39:22.426Z,0.00
2023-02-25T05:40:22.438Z,0.00
2023-02-25T05:41:22.448Z,0.00
2023-02-25T05:42:22.464Z,0.00
2023-02-25T05:43:22.483Z,0.00
2023-02-25T05:44:22.502Z,0.00
2023-02-25T05:45:22.518Z,0.00
2023-02-25T05:46:23.060Z,0.00
2023-02-25T05:47:22.558Z,0.00
2023-02-25T05:48:22.577Z,0.00
2023-02-25T05:49:22.594Z,0.00
2023-02-25T05:50:22.609Z,0.00
2023-02-25T05:51:22.664Z,0.00
2023-02-25T05:52:22.650Z,0.00
2023-02-25T05:53:22.661Z,0.00
2023-02-25T05:54:22.682Z,0.00
2023-02-25T05:55:22.699Z,0.00
2023-02-25T05:56:23.178Z,0.00
2023-02-25T05:57:22.735Z,0.00
2023-02-25T05:58:22.754Z,0.00
2023-02-25T05:59:22.770Z,0.00
2023-02-25T06:00:22.805Z,0.00
2023-02-25T06:01:22.886Z,0.00
2023-02-25T06:02:22.864Z,0.00
2023-02-25T06:03:22.901Z,0.00
2023-02-25T06:04:22.857Z,0.00
2023-02-25T06:05:22.875Z,0.00
2023-02-25T06:06:23.489Z,0.00
2023-02-25T06:07:22.910Z,0.00
2023-02-25T06:08:22.928Z,0.00
2023-02-25T06:09:22.951Z,0.00
2023-02-25T06:10:22.965Z,0.00
2023-02-25T06:11:22.981Z,0.00
2023-02-25T06:12:23.004Z,0.00
2023-02-25T06:13:23.021Z,0.00
2023-02-25T06:14:23.041Z,0.00
2023-02-25T06:15:23.054Z,0.00
2023-02-25T06:16:23.531Z,0.00
2023-02-25T06:17:23.142Z,0.00
2023-02-25T06:18:23.109Z,0.00
2023-02-25T06:19:23.132Z,0.00
2023-02-25T06:20:23.150Z,0.00
2023-02-25T06:21:23.161Z,0.00
2023-02-25T06:22:23.178Z,0.00
2023-02-25T06:23:23.198Z,5.63
2023-02-25T06:24:23.220Z,5.63
2023-02-25T06:25:23.233Z,5.63
2023-02-25T06:26:23.662Z,5.63
2023-02-25T06:27:23.268Z,5.63
2023-02-25T06:28:23.289Z,5.63
2023-02-25T06:29:23.310Z,5.63
2023-02-25T06:30:23.353Z,11.25
2023-02-25T06:31:23.369Z,11.25
2023-02-25T06:32:23.570Z,11.25
2023-02-25T06:33:23.377Z,11.25
2023-02-25T06:34:23.406Z,16.88
2023-02-25T06:35:23.546Z,16.88
2023-02-25T06:36:23.784Z,16.88
2023-02-25T06:37:23.454Z,16.88
2023-02-25T06:38:23.475Z,22.50
2023-02-25T06:39:23.489Z,28.13
2023-02-25T06:40:23.507Z,28.13
2023-02-25T06:41:23.535Z,28.13
2023-02-25T06:42:23.544Z,33.75
2023-02-25T06:43:23.563Z,33.75
2023-02-25T06:44:23.587Z,33.75
2023-02-25T06:45:23.602Z,28.13
2023-02-25T06:46:24.006Z,28.13
2023-02-25T06:47:23.633Z,28.13
2023-02-25T06:48:23.658Z,28.13
2023-02-25T06:49:23.671Z,28.13
2023-02-25T06:50:23.693Z,28.13
2023-02-25T06:51:23.724Z,28.13
2023-02-25T06:52:23.728Z,28.13
2023-02-25T06:53:23.746Z,28.13
2023-02-25T06:54:23.762Z,28.13
2023-02-25T06:55:23.783Z,28.13
2023-02-25T06:56:24.107Z,28.13
2023-02-25T06:57:23.824Z,33.75
2023-02-25T06:58:23.839Z,33.75
2023-02-25T06:59:23.853Z,33.75
2023-02-25T07:00:23.885Z,33.75
2023-02-25T07:01:24.037Z,33.75
2023-02-25T07:02:23.912Z,33.75
2023-02-25T07:03:23.936Z,39.38
2023-02-25T07:04:23.964Z,39.38
2023-02-25T07:05:23.965Z,45.00
2023-02-25T07:06:24.322Z,45.00
2023-02-25T07:07:23.999Z,45.00
2023-02-25T07:08:24.026Z,45.00
2023-02-25T07:09:24.037Z,45.00
2023-02-25T07:10:24.068Z,45.00
2023-02-25T07:11:24.089Z,45.00
2023-02-25T07:12:24.093Z,50.63
2023-02-25T07:13:24.112Z,50.63
2023-02-25T07:14:24.121Z,56.25
2023-02-25T07:15:24.141Z,56.25
2023-02-25T07:16:24.512Z,56.25
2023-02-25T07:17:24.182Z,61.88
2023-02-25T07:18:24.223Z,67.50
2023-02-25T07:19:24.213Z,67.50
2023-02-25T07:20:24.239Z,78.75
2023-02-25T07:21:24.251Z,84.38
2023-02-25T07:22:24.411Z,90.00
2023-02-25T07:23:24.297Z,84.38
2023-02-25T07:24:24.309Z,78.75
2023-02-25T07:25:24.427Z,73.13
2023-02-25T07:26:24.572Z,67.50
2023-02-25T07:27:24.369Z,67.50
2023-02-25T07:28:24.388Z,67.50
2023-02-25T07:29:24.399Z,73.13
2023-02-25T07:30:24.417Z,84.38
2023-02-25T07:31:24.914Z,90.00
2023-02-25T07:32:24.688Z,90.00
2023-02-25T07:33:24.474Z,95.63
2023-02-25T07:34:24.493Z,95.63
2023-02-25T07:35:24.514Z,101.25
2023-02-25T07:36:24.533Z,101.25
2023-02-25T07:37:24.575Z,112.50
2023-02-25T07:38:24.568Z,112.50
2023-02-25T07:39:24.579Z,118.13
2023-02-25T07:40:24.604Z,129.38
2023-02-25T07:41:24.846Z,135.00
2023-02-25T07:42:24.639Z,146.25
2023-02-25T07:43:24.686Z,151.88
2023-02-25T07:44:24.693Z,151.88
2023-02-25T07:45:24.714Z,146.25
2023-02-25T07:46:24.814Z,146.25
2023-02-25T07:47:24.735Z,151.88
2023-02-25T07:48:24.760Z,151.88
2023-02-25T07:49:24.783Z,146.25
2023-02-25T07:50:24.793Z,151.88
2023-02-25T07:51:25.255Z,151.88
2023-02-25T07:52:24.832Z,146.25
2023-02-25T07:53:24.852Z,151.88
2023-02-25T07:54:24.870Z,151.88
2023-02-25T07:55:24.891Z,146.25
2023-02-25T07:56:24.911Z,151.88
2023-02-25T07:57:24.928Z,151.88
2023-02-25T07:58:24.947Z,151.88
2023-02-25T07:59:24.966Z,146.25
2023-02-25T08:00:25.038Z,151.88
2023-02-25T08:01:25.465Z,151.88
2023-02-25T08:02:25.079Z,151.88
2023-02-25T08:03:25.038Z,151.88
2023-02-25T08:04:25.095Z,146.25
2023-02-25T08:05:25.086Z,146.25
2023-02-25T08:06:25.100Z,146.25
2023-02-25T08:07:26.695Z,146.25
2023-02-25T08:08:25.141Z,146.25
2023-02-25T08:09:25.155Z,146.25
2023-02-25T08:10:25.174Z,135.00
2023-02-25T08:11:25.649Z,129.38
2023-02-25T08:12:25.222Z,140.63
2023-02-25T08:13:25.230Z,157.50
2023-02-25T08:14:25.248Z,180.00
2023-02-25T08:15:25.267Z,202.50
2023-02-25T08:16:25.322Z,241.88
2023-02-25T08:17:25.306Z,241.88
2023-02-25T08:18:25.400Z,196.88
2023-02-25T08:19:25.343Z,191.25
2023-02-25T08:20:25.361Z,196.88
2023-02-25T08:21:25.860Z,191.25
2023-02-25T08:22:25.405Z,180.00
2023-02-25T08:23:25.551Z,157.50
2023-02-25T08:24:25.445Z,146.25
2023-02-25T08:25:25.781Z,163.13
2023-02-25T08:26:25.542Z,225.00
2023-02-25T08:27:25.495Z,241.88
2023-02-25T08:28:25.519Z,219.38
2023-02-25T08:29:25.541Z,236.25
2023-02-25T08:30:25.565Z,225.00
2023-02-25T08:31:26.166Z,219.38
2023-02-25T08:32:25.701Z,202.50
2023-02-25T08:33:25.613Z,185.63
2023-02-25T08:34:25.642Z,219.38
2023-02-25T08:35:25.654Z,213.75
2023-02-25T08:36:25.673Z,191.25
2023-02-25T08:37:25.690Z,196.88
2023-02-25T08:38:25.878Z,225.00
2023-02-25T08:39:25.767Z,180.00
2023-02-25T08:40:25.783Z,151.88
2023-02-25T08:41:26.112Z,180.00
2023-02-25T08:42:25.788Z,236.25
2023-02-25T08:43:25.808Z,258.75
2023-02-25T08:44:25.841Z,298.13
2023-02-25T08:45:25.983Z,298.13
2023-02-25T08:46:25.923Z,241.88
2023-02-25T08:47:25.884Z,270.00
2023-02-25T08:48:25.902Z,264.38
2023-02-25T08:49:25.918Z,180.00
2023-02-25T08:50:26.068Z,157.50
2023-02-25T08:51:26.131Z,112.50
2023-02-25T08:52:25.982Z,95.63
2023-02-25T08:53:26.012Z,106.88
2023-02-25T08:54:26.031Z,129.38
2023-02-25T08:55:26.137Z,157.50
2023-02-25T08:56:26.063Z,146.25
2023-02-25T08:57:26.121Z,140.63
2023-02-25T08:58:26.099Z,146.25
2023-02-25T08:59:26.189Z,180.00
2023-02-25T09:00:26.162Z,191.25
2023-02-25T09:01:26.605Z,180.00
2023-02-25T09:02:26.198Z,213.75
2023-02-25T09:03:26.231Z,225.00
2023-02-25T09:04:26.304Z,202.50
2023-02-25T09:05:26.272Z,191.25
2023-02-25T09:06:26.285Z,180.00
2023-02-25T09:07:26.318Z,174.38
2023-02-25T09:08:26.541Z,151.88
2023-02-25T09:09:27.309Z,174.38
2023-02-25T09:10:26.330Z,225.00
2023-02-25T09:11:26.758Z,208.13
2023-02-25T09:12:26.368Z,196.88
2023-02-25T09:13:26.395Z,180.00
2023-02-25T09:14:26.415Z,225.00
2023-02-25T09:15:26.427Z,258.75
2023-02-25T09:16:26.476Z,315.00
2023-02-25T09:17:26.465Z,281.25
2023-02-25T09:18:26.488Z,247.50
2023-02-25T09:19:26.506Z,247.50
2023-02-25T09:20:26.521Z,258.75
2023-02-25T09:21:26.543Z,253.13
2023-02-25T09:22:26.565Z,236.25
2023-02-25T09:23:26.593Z,196.88
2023-02-25T09:24:26.608Z,208.13
2023-02-25T09:25:26.622Z,202.50
2023-02-25T09:26:26.663Z,208.13
2023-02-25T09:27:26.671Z,202.50
2023-02-25T09:28:26.688Z,202.50
2023-02-25T09:29:26.698Z,174.38
2023-02-25T09:30:26.723Z,185.63
2023-02-25T09:31:27.289Z,202.50
2023-02-25T09:32:26.874Z,168.75
2023-02-25T09:33:26.777Z,163.13
2023-02-25T09:34:26.795Z,140.63
2023-02-25T09:35:26.814Z,123.75
2023-02-25T09:36:26.833Z,129.38
2023-02-25T09:37:26.854Z,135.00
2023-02-25T09:38:26.868Z,151.88
2023-02-25T09:39:26.890Z,163.13
2023-02-25T09:40:26.906Z,151.88
2023-02-25T09:41:26.944Z,168.75
2023-02-25T09:42:26.970Z,168.75
2023-02-25T09:43:26.974Z,157.50
2023-02-25T09:44:27.068Z,163.13
2023-02-25T09:45:27.007Z,174.38
2023-02-25T09:46:27.035Z,191.25
2023-02-25T09:47:27.118Z,140.63
2023-02-25T09:48:27.076Z,118.13
2023-02-25T09:49:27.089Z,118.13
2023-02-25T09:50:27.100Z,118.13
2023-02-25T09:51:27.123Z,140.63
2023-02-25T09:52:27.140Z,168.75
2023-02-25T09:53:27.158Z,174.38
2023-02-25T09:54:27.182Z,174.38
2023-02-25T09:55:27.198Z,236.25
2023-02-25T09:56:27.218Z,264.38
2023-02-25T09:57:27.236Z,168.75
2023-02-25T09:58:27.258Z,168.75
2023-02-25T09:59:27.278Z,174.38
2023-02-25T10:00:27.299Z,168.75
2023-02-25T10:01:27.325Z,168.75
2023-02-25T10:02:27.377Z,168.75
2023-02-25T10:03:27.362Z,219.38
2023-02-25T10:04:27.372Z,219.38
2023-02-25T10:05:27.392Z,213.75
2023-02-25T10:06:27.423Z,258.75
2023-02-25T10:07:27.433Z,247.50
2023-02-25T10:08:27.463Z,208.13
2023-02-25T10:09:27.471Z,180.00
2023-02-25T10:10:27.503Z,151.88
2023-02-25T10:11:27.543Z,140.63
2023-02-25T10:12:27.534Z,140.63
2023-02-25T10:13:27.547Z,163.13
2023-02-25T10:14:27.565Z,219.38
2023-02-25T10:15:27.596Z,191.25
2023-02-25T10:16:27.655Z,146.25
2023-02-25T10:17:27.639Z,157.50
2023-02-25T10:18:27.648Z,185.63
2023-02-25T10:19:27.663Z,185.63
2023-02-25T10:20:27.682Z,174.38
2023-02-25T10:21:27.701Z,180.00
2023-02-25T10:22:27.718Z,241.88
2023-02-25T10:23:27.735Z,292.50
2023-02-25T10:24:27.758Z,331.88
2023-02-25T10:25:27.786Z,309.38
2023-02-25T10:26:27.801Z,309.38
2023-02-25T10:27:27.816Z,236.25
2023-02-25T10:28:27.832Z,225.00
2023-02-25T10:29:27.848Z,230.63
2023-02-25T10:30:27.978Z,241.88
2023-02-25T10:31:28.417Z,241.88
2023-02-25T10:32:28.036Z,219.38
2023-02-25T10:33:27.926Z,196.88
2023-02-25T10:34:27.945Z,163.13
2023-02-25T10:35:27.965Z,157.50
2023-02-25T10:36:27.986Z,157.50
2023-02-25T10:37:28.008Z,151.88
2023-02-25T10:38:28.024Z,151.88
2023-02-25T10:39:28.046Z,140.63
2023-02-25T10:40:28.062Z,151.88
2023-02-25T10:41:28.086Z,174.38
2023-02-25T10:42:28.102Z,174.38
2023-02-25T10:43:28.121Z,180.00
2023-02-25T10:44:28.145Z,168.75
2023-02-25T10:45:28.158Z,163.13
2023-02-25T10:46:28.240Z,163.13
2023-02-25T10:47:28.203Z,174.38
2023-02-25T10:48:28.217Z,196.88
2023-02-25T10:49:28.246Z,163.13
2023-02-25T10:50:42.888Z,174.38
2023-02-25T10:51:28.308Z,191.25
2023-02-25T10:52:28.290Z,191.25
2023-02-25T10:53:28.311Z,168.75
2023-02-25T10:54:28.337Z,202.50
2023-02-25T10:55:28.349Z,208.13
2023-02-25T10:56:28.374Z,219.38
2023-02-25T10:57:28.390Z,225.00
2023-02-25T10:58:28.405Z,168.75
2023-02-25T10:59:30.806Z,196.88
2023-02-25T11:00:28.447Z,247.50
2023-02-25T11:01:28.532Z,270.00
2023-02-25T11:02:28.605Z,241.88
2023-02-25T11:03:28.506Z,230.63
2023-02-25T11:04:28.540Z,241.88
2023-02-25T11:05:28.541Z,253.13
2023-02-25T11:06:28.567Z,281.25
2023-02-25T11:07:28.582Z,230.63
2023-02-25T11:08:28.598Z,247.50
2023-02-25T11:09:28.638Z,241.88
2023-02-25T11:10:28.655Z,230.63
2023-02-25T11:11:31.035Z,253.13
2023-02-25T11:12:28.679Z,247.50
2023-02-25T11:13:28.724Z,270.00
2023-02-25T11:14:28.717Z,298.13
2023-02-25T11:15:43.177Z,241.88
2023-02-25T11:16:28.795Z,230.63
2023-02-25T11:17:28.792Z,174.38
2023-02-25T11:18:28.789Z,140.63
2023-02-25T11:19:28.815Z,140.63
2023-02-25T11:20:28.838Z,163.13
2023-02-25T11:21:28.855Z,135.00
2023-02-25T11:22:28.872Z,118.13
2023-02-25T11:23:28.893Z,123.75
2023-02-25T11:24:28.911Z,118.13
2023-02-25T11:25:28.932Z,123.75
2023-02-25T11:26:28.947Z,129.38
2023-02-25T11:27:28.971Z,135.00
2023-02-25T11:28:28.987Z,135.00
2023-02-25T11:29:29.013Z,140.63
2023-02-25T11:30:29.042Z,140.63
2023-02-25T11:31:29.540Z,157.50
2023-02-25T11:32:29.184Z,168.75
2023-02-25T11:33:29.083Z,157.50
2023-02-25T11:34:30.041Z,140.63
2023-02-25T11:35:29.117Z,135.00
2023-02-25T11:36:29.161Z,135.00
2023-02-25T11:37:29.174Z,135.00
2023-02-25T11:38:29.173Z,135.00
2023-02-25T11:39:29.197Z,140.63
2023-02-25T11:40:29.218Z,146.25
2023-02-25T11:41:29.229Z,157.50
2023-02-25T11:42:29.250Z,168.75
2023-02-25T11:43:29.271Z,163.13
2023-02-25T11:44:29.290Z,140.63
2023-02-25T11:45:29.306Z,135.00
2023-02-25T11:46:29.344Z,135.00
2023-02-25T11:47:29.351Z,157.50
2023-02-25T11:48:29.361Z,191.25
2023-02-25T11:49:29.429Z,174.38
2023-02-25T11:50:29.411Z,185.63
2023-02-25T11:51:29.429Z,185.63
2023-02-25T11:52:29.443Z,180.00
2023-02-25T11:53:29.506Z,196.88
2023-02-25T11:54:29.498Z,258.75
2023-02-25T11:55:29.502Z,213.75
2023-02-25T11:56:29.515Z,247.50
2023-02-25T11:57:29.533Z,208.13
2023-02-25T11:58:29.553Z,168.75
2023-02-25T11:59:29.572Z,129.38
2023-02-25T12:00:29.625Z,129.38
2023-02-25T12:01:29.614Z,123.75
2023-02-25T12:02:29.641Z,129.38
2023-02-25T12:03:29.647Z,129.38
2023-02-25T12:04:29.681Z,129.38
2023-02-25T12:05:29.714Z,123.75
2023-02-25T12:06:29.706Z,123.75
2023-02-25T12:07:29.724Z,123.75
2023-02-25T12:08:29.744Z,123.75
2023-02-25T12:09:29.762Z,129.38
2023-02-25T12:10:29.784Z,129.38
2023-02-25T12:11:29.801Z,135.00
2023-02-25T12:12:29.830Z,129.38
2023-02-25T12:13:29.910Z,123.75
2023-02-25T12:14:29.857Z,123.75
2023-02-25T12:15:29.876Z,123.75
2023-02-25T12:16:29.956Z,129.38
2023-02-25T12:17:29.914Z,146.25
2023-02-25T12:18:29.934Z,123.75
2023-02-25T12:19:29.952Z,129.38
2023-02-25T12:20:29.975Z,135.00
2023-02-25T12:21:29.991Z,135.00
2023-02-25T12:22:30.016Z,146.25
2023-02-25T12:23:30.044Z,129.38
2023-02-25T12:24:30.046Z,140.63
2023-02-25T12:25:30.068Z,146.25
2023-02-25T12:26:30.094Z,140.63
2023-02-25T12:27:30.113Z,140.63
2023-02-25T12:28:30.121Z,140.63
2023-02-25T12:29:30.144Z,135.00
2023-02-25T12:30:30.198Z,135.00
2023-02-25T12:31:30.243Z,135.00
2023-02-25T12:32:30.231Z,135.00
2023-02-25T12:33:30.221Z,135.00
2023-02-25T12:34:30.238Z,140.63
2023-02-25T12:35:30.254Z,135.00
2023-02-25T12:36:30.274Z,129.38
2023-02-25T12:37:30.294Z,140.63
2023-02-25T12:38:32.199Z,146.25
2023-02-25T12:39:30.337Z,140.63
2023-02-25T12:40:30.353Z,140.63
2023-02-25T12:41:30.396Z,146.25
2023-02-25T12:42:30.389Z,140.63
2023-02-25T12:43:30.406Z,135.00
2023-02-25T12:44:30.429Z,140.63
2023-02-25T12:45:30.478Z,140.63
2023-02-25T12:46:30.469Z,146.25
2023-02-25T12:47:30.484Z,146.25
2023-02-25T12:48:30.501Z,163.13
2023-02-25T12:49:30.524Z,168.75
2023-02-25T12:50:30.540Z,196.88
2023-02-25T12:51:30.561Z,213.75
2023-02-25T12:52:30.586Z,253.13
2023-02-25T12:53:30.599Z,264.38
2023-02-25T12:54:30.619Z,202.50